Saegertown, Pennsylvania
Current Conditions -  °F | °C
As of 4:53 PM on Thursday 27 Nov 2014 (Local Time) from KGKJ Reporting Station
Light Snow Light Snow  
Wind Chill: 19°   Ceiling: 2800
Heat Index: 28°   Visibility: 7mi
Dew Point: 23°   Wind: 9mph
Humidity: 81%   Direction: 250°WSW
Pressure: 30.09"   Gusts: NA
Location:  41.72°N, 80.15°W
Report Text: KGKJ 272153Z AUTO 25008KT 7SM -SN BKN028 OVC034 M02/M05 A3009 RMK AO2 SNB14 SLP205 P0000 T10221050 TSNO
Loading
Personal Weather Stations






























Interactive Weather Map New forecast layout! Learn more

10-Day Weather Forecast

Advertisements
Track Severe Weather on mobile